Time;durP1;ratioP1;P1;durP2;ratioP2;P2;SDS_P1;SDS_P2;PMS_P1;PMS_P2;Temp;Humidity;BMP_temperature;BMP_pressure;BME280_temperature;BME280_humidity;BME280_pressure;Samples;Min_cycle;Max_cycle;Signal;HPM_P1;HPM_P2
2022/04/30 00:01:09;;;;;;;1.50;1.10;;;10.50;92.30;;;;;;5004298;28;20488;-76
2022/04/30 00:03:38;;;;;;;1.43;1.10;;;10.40;92.50;;;;;;4986012;28;20469;-76
2022/04/30 00:06:05;;;;;;;1.50;1.10;;;10.40;92.30;;;;;;4989350;28;20469;-76
2022/04/30 00:08:32;;;;;;;1.47;1.10;;;10.30;92.80;;;;;;4989407;28;20560;-76
2022/04/30 00:11:00;;;;;;;1.50;1.10;;;10.30;92.80;;;;;;4993399;28;20614;-76
2022/04/30 00:13:27;;;;;;;1.50;1.10;;;10.30;93.00;;;;;;4989328;28;20472;-76
2022/04/30 00:15:54;;;;;;;1.50;1.13;;;10.20;93.50;;;;;;4989043;28;20473;-76
2022/04/30 00:18:20;;;;;;;1.50;1.20;;;10.10;93.40;;;;;;4987057;28;20468;-76
2022/04/30 00:20:47;;;;;;;1.47;1.10;;;10.10;93.50;;;;;;4989145;28;20868;-76
2022/04/30 00:23:20;;;;;;;1.50;1.10;;;10.00;93.90;;;;;;4987504;28;20477;-76
2022/04/30 00:25:52;;;;;;;1.50;1.00;;;10.00;94.10;;;;;;4997906;28;20461;-76
2022/04/30 00:28:22;;;;;;;1.40;1.10;;;10.00;94.20;;;;;;4996329;28;20455;-75
2022/04/30 00:30:49;;;;;;;1.50;1.10;;;9.90;94.30;;;;;;5001795;28;20481;-76
2022/04/30 00:33:16;;;;;;;1.47;1.10;;;9.90;94.40;;;;;;4994702;28;20453;-75
2022/04/30 00:35:43;;;;;;;1.50;1.10;;;9.90;94.60;;;;;;4989902;28;21192;-76
2022/04/30 00:38:11;;;;;;;1.50;1.00;;;9.90;94.70;;;;;;4989020;28;20917;-76
2022/04/30 00:40:37;;;;;;;1.50;1.10;;;9.80;95.00;;;;;;4988842;28;20496;-76
2022/04/30 00:43:04;;;;;;;1.50;1.10;;;9.80;95.00;;;;;;4988976;28;20461;-75
2022/04/30 00:45:32;;;;;;;1.50;1.10;;;9.70;95.10;;;;;;4989455;28;20484;-75
2022/04/30 00:48:00;;;;;;;1.50;1.10;;;9.70;95.40;;;;;;4991194;28;20468;-75
2022/04/30 00:50:29;;;;;;;1.50;1.20;;;9.70;95.40;;;;;;4993595;28;20495;-75
2022/04/30 00:52:58;;;;;;;1.50;1.00;;;9.60;95.70;;;;;;4988894;28;20516;-76
2022/04/30 00:55:28;;;;;;;2.07;1.97;;;9.60;95.60;;;;;;4983495;28;20528;-75
2022/04/30 00:58:00;;;;;;;1.50;1.10;;;9.60;95.70;;;;;;4987049;28;20465;-76
2022/04/30 01:00:27;;;;;;;1.50;1.20;;;9.60;95.60;;;;;;4991846;28;20568;-76
2022/04/30 01:02:55;;;;;;;1.50;1.20;;;9.50;95.90;;;;;;4991829;28;20618;-76
2022/04/30 01:05:22;;;;;;;1.50;1.10;;;9.50;96.10;;;;;;4989619;28;20760;-75
2022/04/30 01:07:49;;;;;;;1.43;1.10;;;9.40;96.30;;;;;;4989296;28;20755;-75
2022/04/30 01:10:16;;;;;;;1.50;1.10;;;9.40;96.50;;;;;;5000975;28;20587;-75
2022/04/30 01:12:43;;;;;;;2.13;1.93;;;9.40;96.60;;;;;;4991737;28;20472;-76
2022/04/30 01:15:12;;;;;;;1.50;1.30;;;9.40;96.70;;;;;;4995954;28;20468;-76
2022/04/30 01:17:40;;;;;;;1.50;1.07;;;9.30;96.90;;;;;;5006295;28;20500;-76
2022/04/30 01:20:11;;;;;;;1.50;1.20;;;9.30;97.00;;;;;;4992620;28;20480;-75
2022/04/30 01:22:52;;;;;;;1.50;1.10;;;9.30;96.80;;;;;;4998562;28;20996;-75
2022/04/30 01:25:21;;;;;;;1.50;1.20;;;9.30;96.80;;;;;;5011929;28;20467;-75
2022/04/30 01:27:48;;;;;;;1.50;1.10;;;9.20;97.00;;;;;;4995457;28;20476;-75
2022/04/30 01:30:17;;;;;;;1.50;1.10;;;9.20;97.00;;;;;;4992257;28;20484;-75
2022/04/30 01:38:29;;;;;;;1.50;1.10;;;9.20;97.30;;;;;;4948395;29;20602;-78
2022/04/30 01:40:56;;;;;;;1.47;1.10;;;9.10;97.30;;;;;;4947702;28;20577;-78
2022/04/30 01:43:23;;;;;;;1.50;1.10;;;9.10;97.40;;;;;;4968993;28;20496;-78
2022/04/30 01:45:51;;;;;;;1.50;1.10;;;9.00;97.40;;;;;;4995249;28;20472;-78
2022/04/30 01:48:18;;;;;;;1.60;1.50;;;9.00;97.50;;;;;;5001955;28;20523;-78
2022/04/30 01:50:45;;;;;;;1.50;1.10;;;8.90;97.80;;;;;;4980833;28;20493;-78
2022/04/30 01:53:11;;;;;;;1.50;1.20;;;8.90;97.80;;;;;;4996615;28;20474;-78
2022/04/30 01:55:40;;;;;;;1.77;1.67;;;8.90;97.50;;;;;;4997705;28;20491;-77
2022/04/30 01:58:07;;;;;;;1.50;1.20;;;8.80;98.00;;;;;;4991514;28;20519;-78
2022/04/30 02:00:34;;;;;;;1.50;1.20;;;8.80;98.20;;;;;;4974088;28;20548;-78
2022/04/30 02:03:05;;;;;;;1.50;1.20;;;8.80;98.00;;;;;;4992535;28;20472;-78
2022/04/30 02:05:33;;;;;;;1.50;1.20;;;8.70;98.20;;;;;;5003134;28;20526;-78
2022/04/30 02:08:03;;;;;;;1.50;1.10;;;8.70;98.20;;;;;;5003724;28;20819;-78
2022/04/30 02:10:30;;;;;;;1.50;1.17;;;8.70;98.20;;;;;;5010236;28;20904;-78
2022/04/30 02:12:59;;;;;;;1.50;1.20;;;8.60;98.20;;;;;;4993134;28;20465;-78
2022/04/30 02:15:27;;;;;;;1.50;1.20;;;8.60;98.20;;;;;;5002027;28;20471;-78
2022/04/30 02:17:57;;;;;;;1.50;1.10;;;8.60;98.20;;;;;;4993079;28;20853;-75
2022/04/30 02:20:29;;;;;;;1.50;1.20;;;8.60;98.20;;;;;;4991974;28;20496;-75
2022/04/30 02:22:58;;;;;;;1.50;1.20;;;8.50;98.20;;;;;;4990831;28;20461;-75
2022/04/30 02:25:25;;;;;;;1.50;1.20;;;8.50;98.20;;;;;;4991754;28;20474;-75
2022/04/30 02:27:54;;;;;;;1.50;1.10;;;8.50;98.20;;;;;;4989777;28;20472;-75
2022/04/30 02:30:26;;;;;;;1.50;1.20;;;8.40;98.20;;;;;;4995622;28;20507;-76
2022/04/30 02:32:54;;;;;;;1.50;1.27;;;8.40;98.20;;;;;;4987332;28;21059;-75
2022/04/30 02:35:23;;;;;;;1.50;1.20;;;8.40;98.20;;;;;;4994642;28;20946;-75
2022/04/30 02:37:52;;;;;;;1.50;1.20;;;8.40;98.20;;;;;;4991016;28;20473;-78
2022/04/30 02:40:20;;;;;;;1.50;1.20;;;8.30;98.20;;;;;;5001797;28;20493;-78
2022/04/30 02:42:51;;;;;;;1.50;1.20;;;8.30;98.20;;;;;;5004488;28;20460;-78
2022/04/30 02:45:18;;;;;;;1.50;1.20;;;8.30;98.20;;;;;;5010650;28;20472;-78
2022/04/30 02:47:52;;;;;;;1.50;1.20;;;8.20;98.20;;;;;;4994762;28;20480;-78
2022/04/30 02:50:21;;;;;;;1.50;1.20;;;8.20;98.20;;;;;;4992739;28;20489;-79
2022/04/30 02:52:48;;;;;;;1.50;1.20;;;8.20;98.20;;;;;;4995352;28;20457;-78
2022/04/30 02:55:15;;;;;;;1.50;1.20;;;8.10;98.20;;;;;;4992708;28;20461;-78
2022/04/30 03:00:26;;;;;;;2.67;2.37;;;8.10;98.20;;;;;;4988272;28;20522;-78
2022/04/30 03:02:54;;;;;;;1.50;1.30;;;8.00;98.20;;;;;;5001244;28;20478;-75
2022/04/30 03:05:21;;;;;;;1.50;1.30;;;8.00;98.20;;;;;;5008554;28;20533;-76
2022/04/30 03:07:47;;;;;;;1.50;1.20;;;8.00;98.20;;;;;;5002971;28;20471;-75
2022/04/30 03:10:15;;;;;;;1.50;1.10;;;8.00;98.20;;;;;;4990928;28;20926;-75
2022/04/30 03:12:42;;;;;;;1.50;1.20;;;8.00;98.20;;;;;;4988890;28;20527;-75
2022/04/30 03:15:10;;;;;;;1.50;1.20;;;8.00;98.20;;;;;;4990258;28;20905;-75
2022/04/30 03:23:07;;;;;;;1.50;1.20;;;8.00;98.20;;;;;;4992932;28;20507;-77
2022/04/30 03:25:34;;;;;;;1.50;1.20;;;7.90;98.20;;;;;;5007293;28;20646;-78
2022/04/30 03:28:01;;;;;;;1.50;1.20;;;7.90;98.20;;;;;;4999686;28;20465;-77
2022/04/30 03:30:28;;;;;;;1.50;1.20;;;7.90;98.20;;;;;;4998177;28;20499;-78
2022/04/30 03:32:55;;;;;;;1.50;1.20;;;7.90;98.20;;;;;;5000081;28;20470;-78
2022/04/30 03:35:24;;;;;;;1.50;1.20;;;7.90;98.20;;;;;;5009365;28;20852;-77
2022/04/30 03:37:50;;;;;;;1.50;1.20;;;7.80;98.20;;;;;;4993741;28;20471;-78
2022/04/30 03:40:17;;;;;;;1.50;1.30;;;7.80;98.20;;;;;;4988662;28;21132;-77
2022/04/30 03:42:44;;;;;;;1.80;1.20;;;7.70;98.20;;;;;;4990332;28;20461;-78
2022/04/30 03:45:11;;;;;;;1.50;1.20;;;7.70;98.20;;;;;;5005780;28;20478;-77
2022/04/30 03:47:38;;;;;;;1.50;1.20;;;7.70;98.20;;;;;;4994449;28;20472;-77
2022/04/30 03:50:06;;;;;;;1.50;1.20;;;7.70;98.20;;;;;;4989418;28;20863;-77
2022/04/30 03:52:34;;;;;;;1.50;1.20;;;7.60;98.20;;;;;;4989293;28;20460;-77
2022/04/30 03:55:02;;;;;;;1.50;1.20;;;7.60;98.20;;;;;;4989756;28;20547;-77
2022/04/30 03:57:31;;;;;;;1.50;1.20;;;7.60;98.20;;;;;;4991244;28;20479;-77
2022/04/30 03:59:57;;;;;;;1.50;1.20;;;7.60;98.20;;;;;;5002679;28;20468;-75
2022/04/30 04:02:24;;;;;;;1.50;1.20;;;7.50;98.20;;;;;;4993722;28;20489;-75
2022/04/30 04:04:53;;;;;;;1.50;1.20;;;7.50;98.20;;;;;;4990033;28;20465;-75
2022/04/30 04:07:20;;;;;;;1.50;1.20;;;7.50;98.20;;;;;;4993372;28;20501;-75
2022/04/30 04:09:48;;;;;;;1.50;1.20;;;7.40;98.20;;;;;;4989490;28;20461;-75
2022/04/30 04:12:14;;;;;;;1.50;1.30;;;7.40;98.20;;;;;;4996934;28;21016;-75
2022/04/30 04:17:38;;;;;;;1.50;1.20;;;7.40;98.20;;;;;;4989961;28;20472;-77
2022/04/30 04:20:06;;;;;;;1.50;1.20;;;7.30;98.20;;;;;;4990857;28;20464;-77
2022/04/30 04:22:33;;;;;;;1.50;1.30;;;7.30;98.20;;;;;;4999345;28;20566;-78
2022/04/30 04:27:45;;;;;;;1.50;1.20;;;7.30;98.20;;;;;;4992803;28;20595;-77
2022/04/30 04:30:12;;;;;;;1.50;1.20;;;7.30;98.20;;;;;;5005059;28;20495;-77
2022/04/30 04:32:39;;;;;;;1.50;1.20;;;7.20;98.20;;;;;;4991808;28;20461;-77
2022/04/30 04:35:07;;;;;;;1.50;1.20;;;7.30;98.20;;;;;;4990016;28;20465;-77
2022/04/30 04:37:33;;;;;;;1.50;1.30;;;7.30;98.20;;;;;;4997402;28;20468;-79
2022/04/30 04:40:02;;;;;;;1.50;1.30;;;7.20;98.20;;;;;;5002039;28;20980;-77
2022/04/30 04:42:29;;;;;;;1.50;1.20;;;7.20;98.20;;;;;;4993486;28;20485;-76
2022/04/30 04:44:56;;;;;;;1.50;1.30;;;7.20;98.20;;;;;;4984548;28;20488;-76
2022/04/30 04:47:23;;;;;;;2.03;1.93;;;7.30;98.20;;;;;;4985176;28;21008;-76
2022/04/30 04:49:49;;;;;;;1.50;1.20;;;7.30;98.20;;;;;;4990588;28;20477;-76
2022/04/30 04:52:16;;;;;;;1.50;1.20;;;7.30;98.20;;;;;;4950262;28;1071967;-76
2022/04/30 04:54:43;;;;;;;1.50;1.20;;;7.30;98.20;;;;;;4991934;28;20214;-76
2022/04/30 04:57:11;;;;;;;1.50;1.20;;;7.40;98.20;;;;;;4992649;28;20468;-76
2022/04/30 04:59:38;;;;;;;1.50;1.20;;;7.40;98.20;;;;;;4990862;28;20469;-76
2022/04/30 05:02:05;;;;;;;1.50;1.20;;;7.40;98.20;;;;;;4992880;28;20875;-76
2022/04/30 05:04:33;;;;;;;1.50;1.10;;;7.40;98.20;;;;;;4992467;28;20484;-75
2022/04/30 05:06:59;;;;;;;1.50;1.20;;;7.50;98.20;;;;;;4992574;28;20539;-76
2022/04/30 05:09:26;;;;;;;1.50;1.20;;;7.50;98.20;;;;;;4998795;28;20488;-77
2022/04/30 05:11:54;;;;;;;1.50;1.20;;;7.60;98.20;;;;;;5009204;28;20471;-76
2022/04/30 05:14:22;;;;;;;1.50;1.10;;;7.60;98.20;;;;;;5011514;28;20753;-76
2022/04/30 05:16:49;;;;;;;1.70;1.60;;;7.70;98.20;;;;;;5004728;28;20458;-76
2022/04/30 05:19:15;;;;;;;1.50;1.20;;;7.70;98.20;;;;;;4997591;28;21095;-76
2022/04/30 05:21:42;;;;;;;1.50;1.10;;;7.70;98.20;;;;;;4994316;28;20496;-76
2022/04/30 05:24:09;;;;;;;1.50;1.10;;;7.80;98.20;;;;;;4998448;28;20464;-76
2022/04/30 05:26:35;;;;;;;1.50;1.20;;;7.80;98.20;;;;;;4992724;28;20468;-76
2022/04/30 05:29:02;;;;;;;1.50;1.20;;;8.00;98.20;;;;;;4992934;28;20472;-73
2022/04/30 05:31:30;;;;;;;1.50;1.20;;;8.10;98.20;;;;;;4991182;28;21308;-75
2022/04/30 05:33:57;;;;;;;1.50;1.20;;;8.30;98.20;;;;;;4998088;28;20835;-76
2022/04/30 05:36:24;;;;;;;1.50;1.10;;;8.50;98.20;;;;;;4992582;28;20887;-76
2022/04/30 05:38:51;;;;;;;1.50;1.20;;;8.60;98.20;;;;;;4992904;28;20467;-76
2022/04/30 05:41:17;;;;;;;1.50;1.20;;;8.70;98.20;;;;;;4991610;28;20493;-76
2022/04/30 05:43:44;;;;;;;1.50;1.20;;;8.80;98.20;;;;;;4992353;28;20476;-76
2022/04/30 05:46:13;;;;;;;1.50;1.20;;;8.90;98.20;;;;;;4991945;28;20471;-76
2022/04/30 05:48:41;;;;;;;1.50;1.17;;;9.00;98.20;;;;;;4991014;28;20473;-76
2022/04/30 05:51:08;;;;;;;1.50;1.20;;;9.30;98.20;;;;;;4990402;28;20581;-77
2022/04/30 05:53:35;;;;;;;1.50;1.10;;;9.50;98.20;;;;;;4992289;28;20472;-76
2022/04/30 05:56:01;;;;;;;1.50;1.20;;;9.70;98.20;;;;;;4992044;28;20469;-77
2022/04/30 05:58:28;;;;;;;1.50;1.10;;;9.80;98.20;;;;;;4991402;28;20465;-76
2022/04/30 06:00:55;;;;;;;1.50;1.10;;;10.00;98.20;;;;;;4989934;28;20485;-77
2022/04/30 06:03:22;;;;;;;1.47;1.10;;;10.20;98.00;;;;;;4999607;28;20519;-77
2022/04/30 06:05:50;;;;;;;1.50;1.20;;;10.40;97.60;;;;;;4983747;28;20847;-77
2022/04/30 06:08:17;;;;;;;1.47;1.00;;;10.50;96.00;;;;;;4992411;28;20468;-77
2022/04/30 06:10:44;;;;;;;1.63;1.50;;;10.70;96.00;;;;;;4990413;28;20484;-77
2022/04/30 06:13:11;;;;;;;1.50;1.20;;;10.90;95.20;;;;;;4992486;28;20457;-77
2022/04/30 06:15:38;;;;;;;1.50;1.10;;;11.10;94.70;;;;;;4992355;28;20562;-77
2022/04/30 06:18:05;;;;;;;1.50;1.10;;;11.20;94.00;;;;;;4991306;28;20468;-78
2022/04/30 06:20:31;;;;;;;1.50;1.10;;;11.30;93.70;;;;;;4991852;28;20676;-74
2022/04/30 06:23:00;;;;;;;1.50;1.10;;;11.40;92.90;;;;;;4995041;28;20835;-74
2022/04/30 06:25:27;;;;;;;1.50;1.10;;;11.40;92.20;;;;;;4991852;28;20465;-75
2022/04/30 06:27:53;;;;;;;1.50;1.10;;;11.30;92.10;;;;;;4990917;28;20461;-74
2022/04/30 06:30:20;;;;;;;1.50;1.20;;;11.10;92.70;;;;;;5002039;28;20992;-75
2022/04/30 06:32:47;;;;;;;1.50;1.00;;;11.00;93.20;;;;;;5003110;28;20885;-75
2022/04/30 06:35:14;;;;;;;1.50;1.03;;;11.00;93.40;;;;;;4991438;28;20461;-75
2022/04/30 06:37:40;;;;;;;1.50;1.10;;;11.00;94.20;;;;;;4986263;28;20491;-76
2022/04/30 06:40:10;;;;;;;1.50;1.10;;;11.10;94.10;;;;;;4983935;28;20469;-76
2022/04/30 06:42:41;;;;;;;1.50;1.10;;;11.30;93.80;;;;;;4990470;28;20492;-76
2022/04/30 06:45:10;;;;;;;1.50;1.10;;;11.40;92.90;;;;;;5016617;28;20491;-75
2022/04/30 06:47:37;;;;;;;1.47;1.00;;;11.30;92.50;;;;;;5026644;28;20472;-75
2022/04/30 06:50:04;;;;;;;1.50;1.00;;;11.30;92.60;;;;;;4995135;28;20821;-76
2022/04/30 06:52:31;;;;;;;1.47;1.00;;;11.30;93.10;;;;;;4984763;28;20903;-76
2022/04/30 06:57:46;;;;;;;1.47;1.03;;;11.40;92.40;;;;;;4990194;28;20602;-75
2022/04/30 07:02:55;;;;;;;1.50;1.00;;;11.50;92.80;;;;;;4991286;28;20491;-76
2022/04/30 07:05:23;;;;;;;1.47;1.00;;;11.40;92.80;;;;;;4990721;28;20469;-75
2022/04/30 07:07:49;;;;;;;1.47;0.90;;;11.40;93.60;;;;;;4991190;28;20917;-76
2022/04/30 07:10:16;;;;;;;1.50;1.00;;;11.50;93.30;;;;;;4991308;28;20488;-75
2022/04/30 07:12:44;;;;;;;1.47;0.90;;;11.60;92.70;;;;;;4988945;28;20468;-76
2022/04/30 07:15:12;;;;;;;1.50;1.00;;;11.40;92.30;;;;;;4989688;28;20846;-75
2022/04/30 07:17:39;;;;;;;1.70;1.27;;;11.30;92.60;;;;;;4991662;28;20499;-75
2022/04/30 07:20:09;;;;;;;1.50;1.20;;;11.20;92.80;;;;;;4990871;28;21136;-75
2022/04/30 07:22:36;;;;;;;1.43;1.07;;;11.20;93.80;;;;;;5000089;28;20585;-75
2022/04/30 07:25:04;;;;;;;1.43;1.00;;;11.10;93.90;;;;;;5010146;28;20848;-76
2022/04/30 07:27:31;;;;;;;1.50;1.00;;;11.20;93.80;;;;;;4995837;28;20465;-75
2022/04/30 07:29:59;;;;;;;1.50;1.00;;;11.40;93.70;;;;;;5001490;28;20464;-75
2022/04/30 07:32:26;;;;;;;1.47;1.00;;;11.40;93.20;;;;;;4987812;28;20468;-75
2022/04/30 07:34:55;;;;;;;1.47;1.00;;;11.80;93.30;;;;;;4976702;28;20472;-75
2022/04/30 07:37:22;;;;;;;1.50;1.00;;;12.10;91.90;;;;;;4989713;28;20480;-76
2022/04/30 07:39:48;;;;;;;1.47;1.00;;;12.20;90.60;;;;;;4986794;28;20454;-76
2022/04/30 07:42:15;;;;;;;1.50;1.00;;;12.40;89.80;;;;;;4980015;28;20584;-76
2022/04/30 07:44:43;;;;;;;1.50;0.97;;;12.50;89.90;;;;;;4976938;28;20695;-76
2022/04/30 07:47:11;;;;;;;1.47;1.00;;;12.60;89.30;;;;;;4983538;28;20898;-76
2022/04/30 07:49:41;;;;;;;1.47;1.00;;;12.60;88.20;;;;;;4985992;28;20551;-76
2022/04/30 07:52:08;;;;;;;1.50;1.00;;;12.50;88.90;;;;;;4983168;28;20493;-76
2022/04/30 07:54:35;;;;;;;1.50;1.00;;;12.50;90.00;;;;;;4980503;28;20845;-76
2022/04/30 07:57:02;;;;;;;1.50;1.00;;;12.50;88.60;;;;;;4980863;28;20570;-76
2022/04/30 07:59:29;;;;;;;1.50;1.00;;;12.40;88.30;;;;;;4985465;28;20588;-76
2022/04/30 08:01:56;;;;;;;1.47;1.00;;;12.40;88.50;;;;;;4979538;28;20500;-76
2022/04/30 08:04:25;;;;;;;1.50;1.10;;;12.40;89.70;;;;;;4979869;28;20553;-76
2022/04/30 08:06:52;;;;;;;1.50;1.00;;;12.50;89.10;;;;;;4984658;28;21132;-76
2022/04/30 08:09:19;;;;;;;1.50;1.00;;;12.50;88.50;;;;;;4974351;28;20508;-76
2022/04/30 08:11:47;;;;;;;1.50;1.00;;;12.60;88.50;;;;;;4980860;28;20481;-76
2022/04/30 08:14:14;;;;;;;1.43;0.97;;;12.60;88.40;;;;;;4980937;28;20483;-76
2022/04/30 08:16:40;;;;;;;1.50;1.00;;;12.60;88.50;;;;;;4971006;28;20491;-76
2022/04/30 08:19:07;;;;;;;1.50;1.00;;;12.60;89.20;;;;;;4990968;28;20934;-76
2022/04/30 08:21:37;;;;;;;1.47;1.10;;;12.80;89.30;;;;;;4985243;28;21031;-76
2022/04/30 08:24:06;;;;;;;1.50;0.90;;;12.90;88.30;;;;;;4974309;28;20853;-75
2022/04/30 08:26:33;;;;;;;1.50;0.90;;;13.00;87.90;;;;;;4981332;28;20476;-76
2022/04/30 08:29:00;;;;;;;2.07;1.67;;;13.00;87.40;;;;;;4980282;28;20557;-76
2022/04/30 08:31:28;;;;;;;1.40;1.00;;;13.10;87.40;;;;;;4976886;28;20477;-76
2022/04/30 08:33:55;;;;;;;1.50;1.20;;;13.00;86.50;;;;;;4979059;28;20460;-76
2022/04/30 08:36:22;;;;;;;1.50;1.00;;;12.90;85.70;;;;;;4977543;28;20472;-76
2022/04/30 08:38:51;;;;;;;1.40;1.00;;;12.80;86.10;;;;;;4986117;28;20925;-76
2022/04/30 08:41:18;;;;;;;1.40;1.00;;;12.80;87.10;;;;;;4988381;28;20489;-76
2022/04/30 08:43:48;;;;;;;1.50;1.10;;;13.00;87.30;;;;;;4981934;28;20520;-79
2022/04/30 08:46:15;;;;;;;1.50;1.00;;;13.50;87.10;;;;;;4981462;28;20461;-77
2022/04/30 08:48:45;;;;;;;1.50;1.10;;;14.00;85.10;;;;;;4978477;28;20503;-77
2022/04/30 08:51:12;;;;;;;1.43;1.00;;;14.40;83.30;;;;;;4983598;28;20495;-76
2022/04/30 08:53:39;;;;;;;1.47;0.90;;;14.80;82.50;;;;;;4981839;28;20969;-77
2022/04/30 08:56:09;;;;;;;1.43;0.97;;;15.40;80.50;;;;;;4977806;28;20461;-78
2022/04/30 08:58:36;;;;;;;1.50;0.97;;;15.80;78.80;;;;;;4981920;28;20815;-76
2022/04/30 09:01:07;;;;;;;1.50;1.00;;;16.10;76.80;;;;;;4980150;28;20992;-78
2022/04/30 09:03:35;;;;;;;1.50;1.00;;;16.30;76.60;;;;;;4977498;28;20496;-74
2022/04/30 09:06:03;;;;;;;1.50;0.90;;;16.40;77.00;;;;;;4976058;28;20961;-76
2022/04/30 09:08:30;;;;;;;1.50;0.97;;;16.40;75.70;;;;;;4977514;28;20483;-78
2022/04/30 09:11:06;;;;;;;1.50;1.00;;;16.40;75.20;;;;;;4977253;28;21078;-76
2022/04/30 09:13:43;;;;;;;1.50;0.90;;;16.50;75.90;;;;;;4982656;28;20552;-75
2022/04/30 09:16:18;;;;;;;1.47;0.90;;;16.50;75.90;;;;;;4981678;28;20484;-75
2022/04/30 09:18:45;;;;;;;1.43;0.90;;;16.40;75.50;;;;;;4978173;28;20464;-76
2022/04/30 09:21:15;;;;;;;1.50;0.90;;;16.40;75.90;;;;;;4974349;28;20851;-77
2022/04/30 09:23:42;;;;;;;1.50;1.00;;;16.60;76.90;;;;;;4993984;28;20484;-76
2022/04/30 09:26:09;;;;;;;1.50;0.90;;;17.00;76.50;;;;;;4982623;28;20505;-74
2022/04/30 09:28:39;;;;;;;1.47;0.90;;;17.30;74.30;;;;;;4978911;28;20465;-76
2022/04/30 09:31:07;;;;;;;1.43;0.90;;;17.40;73.80;;;;;;4976385;28;20592;-75
2022/04/30 09:33:34;;;;;;;1.47;0.90;;;17.30;73.60;;;;;;4975759;28;20466;-76
2022/04/30 09:38:48;;;;;;;1.50;0.97;;;17.20;73.40;;;;;;4992729;28;20560;-76
2022/04/30 09:41:15;;;;;;;1.47;0.90;;;16.90;73.50;;;;;;4987318;28;20905;-76
2022/04/30 09:43:43;;;;;;;1.40;0.90;;;16.90;74.80;;;;;;4979200;28;20529;-79
2022/04/30 09:46:11;;;;;;;1.50;0.90;;;17.00;73.60;;;;;;4972171;28;20477;-77
2022/04/30 09:54:07;;;;;;;1.47;1.00;;;17.10;73.50;;;;;;4976660;28;20477;-77
2022/04/30 09:56:36;;;;;;;1.43;0.90;;;17.30;72.40;;;;;;4972544;28;20491;-78
2022/04/30 09:59:06;;;;;;;1.47;0.90;;;17.40;71.30;;;;;;4990659;28;20534;-79
2022/04/30 10:01:35;;;;;;;1.60;1.30;;;17.50;72.40;;;;;;4980873;28;20881;-78
2022/04/30 10:04:07;;;;;;;1.43;0.90;;;17.60;71.40;;;;;;4987092;28;20493;-78
2022/04/30 10:06:35;;;;;;;1.43;0.90;;;17.60;71.40;;;;;;4977498;28;20488;-78
2022/04/30 10:09:07;;;;;;;1.50;0.90;;;17.70;72.10;;;;;;4976274;28;20775;-78
2022/04/30 10:11:42;;;;;;;1.47;0.90;;;18.10;71.60;;;;;;4984648;28;20515;-78
2022/04/30 10:14:30;;;;;;;1.50;0.90;;;18.40;71.00;;;;;;4983164;28;20977;-77
2022/04/30 10:17:16;;;;;;;1.50;0.90;;;18.50;68.90;;;;;;4978472;28;20476;-78
2022/04/30 10:19:45;;;;;;;1.50;1.00;;;18.50;69.40;;;;;;4986765;28;20496;-78
2022/04/30 10:22:14;;;;;;;1.50;0.90;;;18.20;69.90;;;;;;4980820;28;20477;-78
2022/04/30 10:24:46;;;;;;;1.50;0.90;;;17.80;69.50;;;;;;4980497;28;20571;-78
2022/04/30 10:27:14;;;;;;;1.50;0.90;;;17.70;70.80;;;;;;4981723;28;20988;-78
2022/04/30 10:29:56;;;;;;;1.43;0.90;;;17.90;71.60;;;;;;4982797;28;20465;-78
2022/04/30 10:32:31;;;;;;;1.50;0.90;;;18.10;70.60;;;;;;4982244;28;20462;-78
2022/04/30 10:34:58;;;;;;;1.43;0.90;;;18.40;70.50;;;;;;4986564;28;20478;-78
2022/04/30 10:37:32;;;;;;;1.43;0.90;;;18.50;70.80;;;;;;4984552;28;20465;-78
2022/04/30 10:40:00;;;;;;;1.47;0.90;;;18.70;69.90;;;;;;4979802;28;20487;-78
2022/04/30 10:42:31;;;;;;;1.47;0.90;;;18.80;69.60;;;;;;4990072;28;20480;-76
2022/04/30 10:45:00;;;;;;;1.50;0.90;;;18.90;68.50;;;;;;4986186;28;20474;-77
2022/04/30 10:47:27;;;;;;;1.50;0.90;;;18.90;68.80;;;;;;4979221;28;20539;-77
2022/04/30 10:49:55;;;;;;;1.43;0.90;;;18.80;68.00;;;;;;4987169;28;20472;-78
2022/04/30 10:52:24;;;;;;;1.50;0.90;;;18.80;68.20;;;;;;4980635;28;20572;-78
2022/04/30 10:54:56;;;;;;;1.47;0.90;;;18.80;67.80;;;;;;4985989;28;20545;-78
2022/04/30 10:57:23;;;;;;;1.50;1.20;;;18.90;67.00;;;;;;4967153;28;20521;-76
2022/04/30 11:00:02;;;;;;;1.50;0.90;;;19.00;66.30;;;;;;4973305;28;21084;-75
2022/04/30 11:02:33;;;;;;;1.43;0.90;;;19.20;68.40;;;;;;4979363;28;20473;-77
2022/04/30 11:05:01;;;;;;;1.47;0.90;;;19.40;68.20;;;;;;4980313;28;21129;-78
2022/04/30 11:07:29;;;;;;;1.60;1.40;;;19.20;64.90;;;;;;4986172;28;20468;-77
2022/04/30 11:09:56;;;;;;;1.47;0.90;;;18.90;67.20;;;;;;4973034;28;20952;-77
2022/04/30 11:12:30;;;;;;;1.43;0.90;;;18.70;67.40;;;;;;4980271;28;20469;-77
2022/04/30 11:14:58;;;;;;;1.47;0.90;;;18.80;65.90;;;;;;4977004;28;20511;-76
2022/04/30 11:17:26;;;;;;;1.50;1.13;;;19.10;66.20;;;;;;4983635;28;20860;-76
2022/04/30 11:19:55;;;;;;;1.43;0.90;;;19.40;65.90;;;;;;4982742;28;20950;-77
2022/04/30 11:22:23;;;;;;;1.43;0.90;;;19.60;66.60;;;;;;4983919;28;20465;-78
2022/04/30 11:24:50;;;;;;;1.43;0.90;;;19.40;65.00;;;;;;4987213;28;20797;-77
2022/04/30 11:27:17;;;;;;;1.50;0.90;;;18.90;64.40;;;;;;4976732;28;20523;-78
2022/04/30 11:29:52;;;;;;;1.47;0.90;;;18.70;66.70;;;;;;4982784;28;20467;-78
2022/04/30 11:32:23;;;;;;;1.47;0.90;;;18.60;67.10;;;;;;4980902;28;20559;-78
2022/04/30 11:34:53;;;;;;;1.47;0.90;;;18.50;66.70;;;;;;4979624;28;20547;-78
2022/04/30 11:37:20;;;;;;;1.50;0.90;;;18.50;67.10;;;;;;4977072;28;20462;-78
2022/04/30 11:39:47;;;;;;;1.50;0.90;;;18.60;67.60;;;;;;4979231;28;20465;-79
2022/04/30 11:42:14;;;;;;;1.43;0.90;;;18.50;66.20;;;;;;4976772;28;20986;-78
2022/04/30 11:44:41;;;;;;;1.50;0.90;;;18.40;68.20;;;;;;4982513;28;20654;-77
2022/04/30 11:47:09;;;;;;;1.40;0.90;;;18.30;68.20;;;;;;4983303;28;20876;-77
2022/04/30 11:49:37;;;;;;;1.50;0.90;;;18.30;68.10;;;;;;4983315;28;20853;-78
2022/04/30 11:52:06;;;;;;;1.43;0.90;;;18.30;68.00;;;;;;4977061;28;20507;-78
2022/04/30 11:54:37;;;;;;;1.47;0.90;;;18.20;67.30;;;;;;4980948;28;20910;-77
2022/04/30 11:57:05;;;;;;;1.43;0.90;;;18.40;68.60;;;;;;4979858;28;20477;-79
2022/04/30 11:59:34;;;;;;;1.47;0.90;;;18.60;68.30;;;;;;4977766;28;20480;-78
2022/04/30 12:02:02;;;;;;;1.50;1.00;;;19.00;68.20;;;;;;4978662;28;21038;-78
2022/04/30 12:04:33;;;;;;;1.47;0.90;;;19.40;67.10;;;;;;4977545;28;20521;-78
2022/04/30 12:07:01;;;;;;;1.50;0.90;;;19.40;65.80;;;;;;4983103;28;20496;-78
2022/04/30 12:09:32;;;;;;;1.47;0.90;;;19.30;66.50;;;;;;4985466;28;20468;-77
2022/04/30 12:12:00;;;;;;;1.43;0.90;;;19.40;66.50;;;;;;4981347;28;20488;-77
2022/04/30 12:14:27;;;;;;;1.47;0.90;;;19.50;67.20;;;;;;4974328;28;20465;-76
2022/04/30 12:16:57;;;;;;;1.43;0.90;;;19.70;65.20;;;;;;4981083;28;20563;-78
2022/04/30 12:25:01;;;;;;;1.47;0.90;;;19.80;67.40;;;;;;4981994;28;20857;-78
2022/04/30 12:27:29;;;;;;;1.47;0.90;;;19.70;66.30;;;;;;4976259;28;20544;-78
2022/04/30 12:30:05;;;;;;;1.43;0.90;;;19.60;65.60;;;;;;4982391;28;20532;-79
2022/04/30 12:32:33;;;;;;;1.47;0.90;;;19.70;67.30;;;;;;4984812;28;21111;-77
2022/04/30 12:35:01;;;;;;;1.47;0.90;;;19.80;64.90;;;;;;4987471;28;20461;-78
2022/04/30 12:37:35;;;;;;;1.50;0.90;;;20.10;65.40;;;;;;4982980;28;20480;-77
2022/04/30 12:40:04;;;;;;;1.47;0.90;;;20.20;63.70;;;;;;4983801;28;20493;-79
2022/04/30 12:42:31;;;;;;;1.47;0.90;;;20.30;63.30;;;;;;4989008;28;20708;-78
2022/04/30 12:44:59;;;;;;;1.50;0.90;;;20.10;63.60;;;;;;4976351;28;20489;-79
2022/04/30 12:47:26;;;;;;;1.40;0.90;;;19.80;64.80;;;;;;4980649;28;20464;-79
2022/04/30 12:49:53;;;;;;;1.47;0.90;;;19.70;65.80;;;;;;4978187;28;20515;-79
2022/04/30 12:52:26;;;;;;;1.50;0.90;;;19.70;65.20;;;;;;4980050;28;20889;-79
2022/04/30 12:54:54;;;;;;;1.47;0.93;;;19.80;66.40;;;;;;4985045;28;20461;-78
2022/04/30 12:57:22;;;;;;;1.43;0.90;;;20.10;64.60;;;;;;4983228;28;20739;-78
2022/04/30 12:59:50;;;;;;;1.43;0.90;;;20.40;65.20;;;;;;4973455;28;20861;-78
2022/04/30 13:02:20;;;;;;;1.43;0.90;;;20.60;63.80;;;;;;4980555;28;20485;-78
2022/04/30 13:04:48;;;;;;;1.43;0.90;;;20.50;63.90;;;;;;4976177;28;21174;-79
2022/04/30 13:07:17;;;;;;;1.47;0.80;;;20.30;62.50;;;;;;4977355;28;20588;-79
2022/04/30 13:15:14;;;;;;;1.43;0.90;;;19.40;63.90;;;;;;4981370;28;20448;-79
2022/04/30 13:17:42;;;;;;;1.47;0.90;;;19.30;65.10;;;;;;4989165;28;20471;-78
2022/04/30 13:20:11;;;;;;;1.47;0.90;;;19.40;65.90;;;;;;4983405;28;20471;-78
2022/04/30 13:22:39;;;;;;;1.47;0.90;;;19.60;64.60;;;;;;4986949;28;20480;-79
2022/04/30 13:25:06;;;;;;;1.50;0.90;;;19.90;64.90;;;;;;4980164;28;20488;-76
2022/04/30 13:27:35;;;;;;;1.40;0.90;;;20.10;64.70;;;;;;4983540;28;20636;-78
2022/04/30 13:30:02;;;;;;;1.43;0.90;;;20.20;63.60;;;;;;4982205;28;20475;-78
2022/04/30 13:32:29;;;;;;;1.50;0.90;;;19.90;63.00;;;;;;4982919;28;20849;-77
2022/04/30 13:34:56;;;;;;;1.47;0.90;;;19.50;62.60;;;;;;4985033;28;20915;-79
2022/04/30 13:37:23;;;;;;;1.50;0.90;;;19.20;63.80;;;;;;4985737;28;21058;-77
2022/04/30 13:39:49;;;;;;;1.43;0.90;;;19.40;65.80;;;;;;4983767;28;20468;-77